Time;durP1;ratioP1;P1;durP2;ratioP2;P2;SDS_P1;SDS_P2;PMS_P1;PMS_P2;Temp;Humidity;BMP_temperature;BMP_pressure;BME280_temperature;BME280_humidity;BME280_pressure;Samples;Min_cycle;Max_cycle;Signal;HPM_P1;HPM_P2
2023/02/06 05:06:44;;;;;;;;;28.00;24.00;;;;;;;;6285287;39;9999828;-65
2023/02/06 06:08:33;;;;;;;;;22.33;19.67;;;;;;;;6494159;31;9013;-65
2023/02/06 06:14:36;;;;;;;;;25.67;22.00;;;;;;;;6489674;39;8850;-64
2023/02/06 06:20:40;;;;;;;;;24.00;21.00;;;;;;;;6490489;39;8862;-63
2023/02/06 06:26:43;;;;;;;;;17.33;17.33;;;;;;;;6490195;39;8913;-64
2023/02/06 06:32:47;;;;;;;;;27.00;21.67;;;;;;;;6490985;39;8890;-64
2023/02/06 06:38:53;;;;;;;;;22.00;15.67;;;;;;;;6492142;46;8874;-65
2023/02/06 06:44:56;;;;;;;;;27.00;21.67;;;;;;;;6491254;46;8917;-62
2023/02/06 06:50:58;;;;;;;;;18.67;15.33;;;;;;;;6493009;31;8782;-63
2023/02/06 06:57:00;;;;;;;;;16.50;15.50;;;;;;;;6491043;46;8878;-63
2023/02/06 07:03:04;;;;;;;;;21.33;18.33;;;;;;;;6490004;39;9729;-64
2023/02/06 07:09:07;;;;;;;;;20.67;19.33;;;;;;;;6491719;31;8886;-63
2023/02/06 07:15:10;;;;;;;;;19.67;16.67;;;;;;;;6490357;46;8878;-63
2023/02/06 07:21:14;;;;;;;;;16.67;16.67;;;;;;;;6490599;39;8890;-64
2023/02/06 07:27:19;;;;;;;;;16.25;15.00;;;;;;;;6491167;39;8889;-65
2023/02/06 07:33:22;;;;;;;;;22.00;22.00;;;;;;;;6489703;31;9010;-62
2023/02/06 07:39:25;;;;;;;;;29.33;24.67;;;;;;;;6490607;39;8971;-62
2023/02/06 07:45:27;;;;;;;;;27.67;22.67;;;;;;;;6490038;46;9020;-63
2023/02/06 07:51:30;;;;;;;;;22.00;19.75;;;;;;;;6490061;39;8896;-63
2023/02/06 07:57:33;;;;;;;;;19.00;16.00;;;;;;;;6490715;39;9559;-63
2023/02/06 08:03:35;;;;;;;;;15.50;14.00;;;;;;;;6490819;39;9167;-63
2023/02/06 08:09:41;;;;;;;;;21.25;20.50;;;;;;;;6488321;31;8915;-62
2023/02/06 08:15:44;;;;;;;;;19.50;16.00;;;;;;;;6490005;39;8978;-65
2023/02/06 08:21:49;;;;;;;;;22.00;20.00;;;;;;;;6489984;46;8971;-63
2023/02/06 08:27:54;;;;;;;;;16.00;15.00;;;;;;;;6490969;46;8919;-64
2023/02/06 08:33:58;;;;;;;;;21.25;18.75;;;;;;;;6489253;31;8928;-62
2023/02/06 08:40:01;;;;;;;;;22.25;15.00;;;;;;;;6490899;39;9628;-62
2023/02/06 08:46:03;;;;;;;;;18.50;15.75;;;;;;;;6489476;39;9039;-63
2023/02/06 08:52:06;;;;;;;;;14.00;14.00;;;;;;;;6489633;46;8899;-62
2023/02/06 08:58:08;;;;;;;;;19.00;18.75;;;;;;;;6489292;31;8953;-64
2023/02/06 09:04:15;;;;;;;;;17.50;17.50;;;;;;;;6490070;39;9036;-62
2023/02/06 09:10:18;;;;;;;;;12.50;12.25;;;;;;;;6491345;31;8957;-63
2023/02/06 09:16:33;;;;;;;;;18.75;18.75;;;;;;;;6488019;39;8947;-64
2023/02/06 09:22:36;;;;;;;;;15.75;12.75;;;;;;;;6489524;39;8890;-63
2023/02/06 09:28:45;;;;;;;;;21.25;18.00;;;;;;;;6490220;31;8901;-61
2023/02/06 09:34:47;;;;;;;;;22.00;19.00;;;;;;;;6488130;39;8967;-62
2023/02/06 09:40:54;;;;;;;;;22.25;20.50;;;;;;;;6489939;47;8957;-64
2023/02/06 09:47:17;;;;;;;;;25.25;20.00;;;;;;;;6489284;39;8923;-62
2023/02/06 09:53:48;;;;;;;;;21.50;21.25;;;;;;;;6490570;39;8906;-63
2023/02/06 10:00:00;;;;;;;;;22.00;22.00;;;;;;;;6489515;31;9002;-63
2023/02/06 10:06:21;;;;;;;;;31.50;27.75;;;;;;;;6489587;39;9052;-63
2023/02/06 10:12:37;;;;;;;;;21.25;19.00;;;;;;;;6492381;39;9029;-62
2023/02/06 10:18:54;;;;;;;;;26.00;23.50;;;;;;;;6491324;46;8956;-62
2023/02/06 10:25:19;;;;;;;;;18.75;17.00;;;;;;;;6490738;39;8946;-62
2023/02/06 10:31:24;;;;;;;;;27.25;26.00;;;;;;;;6490821;39;9635;-63
2023/02/06 10:37:51;;;;;;;;;32.00;26.00;;;;;;;;6491741;31;8960;-61
2023/02/06 10:44:02;;;;;;;;;20.50;20.00;;;;;;;;6491379;31;8947;-64
2023/02/06 10:50:33;;;;;;;;;14.75;12.75;;;;;;;;6492803;39;8910;-63
2023/02/06 10:56:43;;;;;;;;;17.50;15.75;;;;;;;;6489438;46;8949;-63
2023/02/06 11:02:54;;;;;;;;;25.00;24.25;;;;;;;;6491335;46;8943;-65
2023/02/06 11:09:09;;;;;;;;;19.50;18.75;;;;;;;;6491342;46;8974;-62
2023/02/06 11:15:22;;;;;;;;;24.25;21.75;;;;;;;;6491233;31;8937;-62
2023/02/06 11:21:50;;;;;;;;;27.50;20.75;;;;;;;;6491496;46;9019;-63
2023/02/06 11:27:54;;;;;;;;;11.00;11.00;;;;;;;;6490239;39;9479;-62
2023/02/06 11:33:57;;;;;;;;;24.00;21.50;;;;;;;;6490863;46;8881;-62
2023/02/06 11:40:17;;;;;;;;;18.25;16.00;;;;;;;;6490907;39;9560;-62
2023/02/06 11:46:33;;;;;;;;;20.50;15.00;;;;;;;;6491339;31;8965;-63
2023/02/06 11:52:36;;;;;;;;;16.00;13.25;;;;;;;;6490564;39;8916;-63
2023/02/06 11:58:38;;;;;;;;;13.50;12.50;;;;;;;;6490167;46;8932;-62
2023/02/06 12:04:41;;;;;;;;;17.25;16.50;;;;;;;;6489419;39;9043;-62
2023/02/06 12:11:04;;;;;;;;;18.00;18.00;;;;;;;;6489184;31;9116;-62
2023/02/06 12:17:30;;;;;;;;;15.00;14.00;;;;;;;;6490112;46;8971;-61
2023/02/06 12:23:39;;;;;;;;;11.50;11.00;;;;;;;;6488353;39;8854;-62
2023/02/06 12:29:49;;;;;;;;;18.75;14.75;;;;;;;;6489791;39;8919;-60
2023/02/06 12:35:58;;;;;;;;;18.50;16.50;;;;;;;;6489327;39;9571;-64
2023/02/06 12:42:36;;;;;;;;;18.50;14.50;;;;;;;;6487335;39;8988;-64
2023/02/06 12:48:48;;;;;;;;;19.75;17.00;;;;;;;;6489115;39;8907;-62
2023/02/06 12:55:05;;;;;;;;;27.00;22.50;;;;;;;;6488805;31;9139;-63
2023/02/06 13:01:16;;;;;;;;;20.50;20.50;;;;;;;;6490010;39;8936;-63
2023/02/06 13:07:39;;;;;;;;;21.75;18.75;;;;;;;;6488635;39;9568;-63
2023/02/06 13:14:19;;;;;;;;;26.50;22.50;;;;;;;;6488991;31;9020;-64
2023/02/06 13:20:25;;;;;;;;;14.50;14.50;;;;;;;;6489271;39;8947;-65
2023/02/06 13:26:42;;;;;;;;;21.00;16.00;;;;;;;;6489003;31;8881;-64
2023/02/06 13:32:49;;;;;;;;;16.25;15.25;;;;;;;;6488532;39;9489;-63
2023/02/06 13:39:11;;;;;;;;;15.25;15.00;;;;;;;;6489742;31;8986;-64
2023/02/06 13:45:39;;;;;;;;;18.00;15.00;;;;;;;;6487997;39;9044;-64
2023/02/06 13:52:07;;;;;;;;;23.00;19.00;;;;;;;;6487632;31;8912;-65
2023/02/06 13:58:28;;;;;;;;;14.25;10.50;;;;;;;;6487406;39;8948;-66
2023/02/06 14:04:36;;;;;;;;;16.75;15.25;;;;;;;;6487881;39;9027;-63
2023/02/06 14:11:03;;;;;;;;;16.75;13.00;;;;;;;;6489100;39;8920;-63
2023/02/06 14:17:21;;;;;;;;;17.50;17.50;;;;;;;;6487620;47;8964;-64
2023/02/06 14:23:33;;;;;;;;;20.75;13.00;;;;;;;;6488796;39;8880;-64
2023/02/06 14:29:55;;;;;;;;;20.50;18.00;;;;;;;;6486909;39;9113;-65
2023/02/06 14:36:04;;;;;;;;;17.00;15.50;;;;;;;;6487786;39;8877;-65
2023/02/06 14:42:16;;;;;;;;;16.50;12.25;;;;;;;;6488077;39;8966;-64
2023/02/06 14:48:26;;;;;;;;;22.00;22.00;;;;;;;;6487183;39;8924;-64
2023/02/06 14:54:37;;;;;;;;;22.25;21.00;;;;;;;;6489403;39;9600;-65
2023/02/06 15:00:39;;;;;;;;;27.50;23.50;;;;;;;;6490032;46;8877;-64
2023/02/06 15:06:49;;;;;;;;;22.50;20.50;;;;;;;;6489832;46;8976;-63
2023/02/06 15:12:52;;;;;;;;;24.50;19.50;;;;;;;;6490941;39;8881;-66
2023/02/06 15:19:15;;;;;;;;;6.50;3.50;;;;;;;;6491007;39;8948;-66
2023/02/06 15:25:26;;;;;;;;;20.75;13.00;;;;;;;;6490406;39;8873;-65
2023/02/06 15:31:30;;;;;;;;;17.75;16.50;;;;;;;;6490559;31;9563;-65
2023/02/06 15:37:34;;;;;;;;;18.25;16.25;;;;;;;;6489848;46;9083;-66
2023/02/06 15:43:37;;;;;;;;;19.25;16.00;;;;;;;;6490685;39;8932;-64
2023/02/06 15:49:46;;;;;;;;;18.75;18.50;;;;;;;;6491478;39;9532;-65
2023/02/06 15:55:58;;;;;;;;;13.00;12.00;;;;;;;;6490278;39;9517;-67
2023/02/06 16:02:02;;;;;;;;;16.00;12.50;;;;;;;;6489690;39;9002;-65
2023/02/06 16:08:33;;;;;;;;;13.50;13.50;;;;;;;;6490489;31;9008;-66
2023/02/06 16:14:39;;;;;;;;;7.50;7.50;;;;;;;;6489387;46;8939;-65
2023/02/06 16:20:42;;;;;;;;;17.25;15.00;;;;;;;;6492293;31;9093;-66
2023/02/06 16:26:47;;;;;;;;;14.50;14.50;;;;;;;;6489131;39;9484;-68
2023/02/06 16:32:50;;;;;;;;;13.00;12.00;;;;;;;;6489788;46;8877;-66
2023/02/06 16:38:55;;;;;;;;;19.00;15.33;;;;;;;;6490439;39;8991;-67
2023/02/06 16:45:09;;;;;;;;;18.00;12.75;;;;;;;;6490258;39;8852;-65
2023/02/06 16:51:26;;;;;;;;;19.25;18.00;;;;;;;;6490180;39;8908;-65
2023/02/06 16:57:33;;;;;;;;;24.50;18.00;;;;;;;;6489836;39;8897;-65
2023/02/06 17:03:37;;;;;;;;;22.00;16.00;;;;;;;;6489873;39;8963;-66
2023/02/06 17:09:43;;;;;;;;;21.00;16.00;;;;;;;;6488957;31;8909;-65
2023/02/06 17:15:46;;;;;;;;;21.00;19.25;;;;;;;;6489259;39;8856;-66
2023/02/06 17:21:48;;;;;;;;;18.25;16.50;;;;;;;;6490601;39;8975;-65
2023/02/06 17:27:53;;;;;;;;;24.50;20.50;;;;;;;;6490370;31;8955;-64
2023/02/06 17:33:55;;;;;;;;;22.25;20.50;;;;;;;;6490504;39;8944;-65
2023/02/06 17:39:57;;;;;;;;;17.50;15.50;;;;;;;;6488863;39;8921;-69
2023/02/06 17:45:59;;;;;;;;;20.00;16.50;;;;;;;;6489724;31;9937;-64
2023/02/06 17:52:03;;;;;;;;;18.00;17.50;;;;;;;;6489916;39;8849;-68
2023/02/06 17:58:08;;;;;;;;;22.00;18.75;;;;;;;;6489811;39;8892;-64
2023/02/06 18:04:11;;;;;;;;;23.00;21.25;;;;;;;;6489427;31;8942;-64
2023/02/06 18:10:15;;;;;;;;;19.50;16.50;;;;;;;;6488932;31;8937;-65
2023/02/06 18:16:20;;;;;;;;;21.25;16.50;;;;;;;;6488874;47;8974;-65
2023/02/06 18:22:22;;;;;;;;;19.00;19.00;;;;;;;;6488139;47;8895;-64
2023/02/06 18:28:24;;;;;;;;;21.00;18.75;;;;;;;;6489380;46;9019;-64
2023/02/06 18:34:26;;;;;;;;;24.00;22.00;;;;;;;;6491382;39;8864;-66
2023/02/06 18:40:28;;;;;;;;;16.00;13.50;;;;;;;;6490137;46;8907;-64
2023/02/06 18:46:31;;;;;;;;;21.50;17.00;;;;;;;;6491540;39;8892;-64
2023/02/06 18:52:34;;;;;;;;;14.50;11.00;;;;;;;;6490762;46;8962;-65
2023/02/06 18:58:37;;;;;;;;;14.50;12.75;;;;;;;;6490897;46;8895;-64
2023/02/06 19:04:39;;;;;;;;;27.75;24.75;;;;;;;;6491705;31;8915;-67
2023/02/06 19:10:42;;;;;;;;;47.00;36.00;;;;;;;;6490525;39;8955;-65
2023/02/06 19:16:46;;;;;;;;;47.67;41.33;;;;;;;;6496638;36;8892;-65
2023/02/06 19:22:48;;;;;;;;;48.33;41.33;;;;;;;;6490188;39;8952;-65
2023/02/06 19:28:52;;;;;;;;;45.67;39.33;;;;;;;;6490132;31;8885;-64
2023/02/06 19:34:56;;;;;;;;;43.67;38.33;;;;;;;;6490714;39;8837;-65
2023/02/06 19:41:09;;;;;;;;;41.50;36.25;;;;;;;;6490578;39;9011;-65
2023/02/06 19:47:11;;;;;;;;;42.00;33.50;;;;;;;;6491872;31;8889;-65
2023/02/06 19:53:13;;;;;;;;;35.33;31.00;;;;;;;;6490644;39;8849;-64
2023/02/06 19:59:26;;;;;;;;;36.67;31.67;;;;;;;;6489963;39;8876;-66
2023/02/06 20:05:28;;;;;;;;;40.67;33.33;;;;;;;;6490408;46;8955;-65
2023/02/06 20:11:32;;;;;;;;;48.33;42.33;;;;;;;;6489859;46;8868;-65
2023/02/06 20:17:35;;;;;;;;;44.00;37.67;;;;;;;;6490868;39;8853;-64
2023/02/06 20:23:39;;;;;;;;;30.75;30.00;;;;;;;;6490887;39;8893;-65
2023/02/06 20:29:44;;;;;;;;;26.75;25.25;;;;;;;;6490893;31;8844;-65
2023/02/06 20:35:49;;;;;;;;;28.00;26.00;;;;;;;;6490318;46;8889;-64
2023/02/06 20:41:53;;;;;;;;;27.50;24.50;;;;;;;;6489667;39;8912;-65
2023/02/06 20:47:55;;;;;;;;;22.25;22.25;;;;;;;;6490477;39;8843;-64
2023/02/06 20:53:57;;;;;;;;;21.00;20.50;;;;;;;;6490490;39;8857;-64
2023/02/06 21:00:00;;;;;;;;;29.00;24.33;;;;;;;;6489923;46;8884;-64
2023/02/06 21:06:02;;;;;;;;;23.00;19.50;;;;;;;;6490098;31;8888;-67
2023/02/06 21:12:04;;;;;;;;;18.75;16.00;;;;;;;;6489656;46;9060;-66
2023/02/06 21:18:07;;;;;;;;;26.00;21.00;;;;;;;;6488877;39;9040;-64
2023/02/06 21:24:11;;;;;;;;;18.00;17.00;;;;;;;;6486832;46;8896;-65
2023/02/06 21:30:13;;;;;;;;;22.00;21.50;;;;;;;;6489307;31;8907;-65
2023/02/06 21:36:17;;;;;;;;;20.00;18.00;;;;;;;;6487860;39;9560;-64
2023/02/06 21:42:24;;;;;;;;;15.50;15.50;;;;;;;;6487247;39;9035;-65
2023/02/06 21:48:27;;;;;;;;;14.50;14.50;;;;;;;;6487684;47;8919;-64
2023/02/06 21:54:29;;;;;;;;;15.75;15.00;;;;;;;;6488427;31;8852;-65
2023/02/06 22:00:31;;;;;;;;;12.00;9.00;;;;;;;;6488338;46;8940;-65
2023/02/06 22:06:35;;;;;;;;;14.00;12.00;;;;;;;;6490629;39;8996;-65
2023/02/06 22:12:39;;;;;;;;;15.00;14.25;;;;;;;;6489241;39;8952;-65
2023/02/06 22:18:44;;;;;;;;;13.25;11.75;;;;;;;;6489944;46;8921;-65
2023/02/06 22:24:49;;;;;;;;;14.50;13.00;;;;;;;;6489987;39;8865;-65
2023/02/06 22:30:52;;;;;;;;;11.00;11.00;;;;;;;;6490342;39;8874;-64
2023/02/06 22:36:56;;;;;;;;;13.00;13.00;;;;;;;;6489099;31;8890;-65
2023/02/06 22:43:01;;;;;;;;;10.00;9.75;;;;;;;;6490150;39;9026;-65
2023/02/06 22:49:07;;;;;;;;;12.25;12.25;;;;;;;;6489770;46;8885;-64
2023/02/06 22:55:11;;;;;;;;;15.50;15.00;;;;;;;;6489125;31;9071;-64
2023/02/06 23:01:15;;;;;;;;;17.33;15.67;;;;;;;;6489442;39;8941;-65
2023/02/06 23:07:18;;;;;;;;;18.00;15.75;;;;;;;;6489513;39;8967;-65
2023/02/06 23:13:20;;;;;;;;;17.75;16.25;;;;;;;;6490036;39;8874;-64
2023/02/06 23:19:22;;;;;;;;;18.25;15.50;;;;;;;;7179099;31;9105;-64
2023/02/06 23:25:25;;;;;;;;;23.25;20.00;;;;;;;;6487926;39;8869;-64
2023/02/06 23:31:28;;;;;;;;;21.75;21.00;;;;;;;;6489656;31;8888;-65
2023/02/06 23:37:31;;;;;;;;;22.00;15.50;;;;;;;;6488456;39;8876;-64
2023/02/06 23:43:34;;;;;;;;;27.00;26.00;;;;;;;;6488827;39;8865;-64
2023/02/06 23:49:37;;;;;;;;;19.50;18.25;;;;;;;;6487995;31;8861;-64
2023/02/06 23:55:39;;;;;;;;;18.75;17.50;;;;;;;;6487801;31;8857;-65
